sensor_id;sensor_type;location;lat;lon;timestamp;P1;durP1;ratioP1;P2;durP2;ratioP2
17193;SDS011;8713;48.388;10.928;2024-01-16T00:00:13;2.20;;;1.13;;
17193;SDS011;8713;48.388;10.928;2024-01-16T00:01:44;2.15;;;1.23;;
17193;SDS011;8713;48.388;10.928;2024-01-16T00:03:13;2.90;;;1.33;;
17193;SDS011;8713;48.388;10.928;2024-01-16T00:04:43;3.03;;;1.70;;
17193;SDS011;8713;48.388;10.928;2024-01-16T00:06:13;2.45;;;1.52;;
17193;SDS011;8713;48.388;10.928;2024-01-16T00:07:43;2.45;;;1.40;;
17193;SDS011;8713;48.388;10.928;2024-01-16T00:09:12;1.98;;;1.05;;
17193;SDS011;8713;48.388;10.928;2024-01-16T00:10:42;2.17;;;1.10;;
17193;SDS011;8713;48.388;10.928;2024-01-16T00:12:11;2.25;;;1.08;;
17193;SDS011;8713;48.388;10.928;2024-01-16T00:13:41;1.30;;;0.98;;
17193;SDS011;8713;48.388;10.928;2024-01-16T00:15:10;1.85;;;1.08;;
17193;SDS011;8713;48.388;10.928;2024-01-16T00:16:45;2.38;;;1.25;;
17193;SDS011;8713;48.388;10.928;2024-01-16T00:18:15;3.28;;;1.65;;
17193;SDS011;8713;48.388;10.928;2024-01-16T00:19:45;3.78;;;1.55;;
17193;SDS011;8713;48.388;10.928;2024-01-16T00:21:15;3.55;;;1.45;;
17193;SDS011;8713;48.388;10.928;2024-01-16T00:22:45;1.73;;;1.27;;
17193;SDS011;8713;48.388;10.928;2024-01-16T00:24:14;3.50;;;1.20;;
17193;SDS011;8713;48.388;10.928;2024-01-16T00:25:44;2.00;;;1.25;;
17193;SDS011;8713;48.388;10.928;2024-01-16T00:27:13;3.00;;;1.38;;
17193;SDS011;8713;48.388;10.928;2024-01-16T00:28:43;1.85;;;1.17;;
17193;SDS011;8713;48.388;10.928;2024-01-16T00:30:13;1.80;;;1.15;;
17193;SDS011;8713;48.388;10.928;2024-01-16T00:31:43;2.25;;;1.10;;
17193;SDS011;8713;48.388;10.928;2024-01-16T00:33:13;2.80;;;1.20;;
17193;SDS011;8713;48.388;10.928;2024-01-16T00:34:43;1.48;;;0.93;;
17193;SDS011;8713;48.388;10.928;2024-01-16T00:36:12;3.65;;;1.23;;
17193;SDS011;8713;48.388;10.928;2024-01-16T00:37:42;1.50;;;0.90;;
17193;SDS011;8713;48.388;10.928;2024-01-16T00:39:12;1.70;;;1.00;;
17193;SDS011;8713;48.388;10.928;2024-01-16T00:40:42;3.10;;;1.40;;
17193;SDS011;8713;48.388;10.928;2024-01-16T00:42:11;2.22;;;1.00;;
17193;SDS011;8713;48.388;10.928;2024-01-16T00:43:42;2.97;;;1.27;;
17193;SDS011;8713;48.388;10.928;2024-01-16T00:45:14;2.55;;;1.17;;
17193;SDS011;8713;48.388;10.928;2024-01-16T00:46:45;1.70;;;0.98;;
17193;SDS011;8713;48.388;10.928;2024-01-16T00:48:15;1.75;;;1.05;;
17193;SDS011;8713;48.388;10.928;2024-01-16T00:49:45;2.10;;;0.85;;
17193;SDS011;8713;48.388;10.928;2024-01-16T00:51:14;1.33;;;0.93;;
17193;SDS011;8713;48.388;10.928;2024-01-16T00:52:44;1.65;;;1.23;;
17193;SDS011;8713;48.388;10.928;2024-01-16T00:54:13;1.25;;;0.93;;
17193;SDS011;8713;48.388;10.928;2024-01-16T00:55:43;2.92;;;1.08;;
17193;SDS011;8713;48.388;10.928;2024-01-16T00:57:12;2.72;;;1.08;;
17193;SDS011;8713;48.388;10.928;2024-01-16T00:58:44;2.42;;;0.90;;
17193;SDS011;8713;48.388;10.928;2024-01-16T01:00:14;2.03;;;0.80;;
17193;SDS011;8713;48.388;10.928;2024-01-16T01:01:44;1.73;;;1.10;;
17193;SDS011;8713;48.388;10.928;2024-01-16T01:03:13;3.08;;;1.30;;
17193;SDS011;8713;48.388;10.928;2024-01-16T01:04:43;2.58;;;1.30;;
17193;SDS011;8713;48.388;10.928;2024-01-16T01:06:13;3.22;;;1.23;;
17193;SDS011;8713;48.388;10.928;2024-01-16T01:07:42;2.00;;;1.13;;
17193;SDS011;8713;48.388;10.928;2024-01-16T01:09:12;2.25;;;0.80;;
17193;SDS011;8713;48.388;10.928;2024-01-16T01:10:42;2.50;;;0.85;;
17193;SDS011;8713;48.388;10.928;2024-01-16T01:12:11;1.88;;;1.02;;
17193;SDS011;8713;48.388;10.928;2024-01-16T01:13:41;1.50;;;0.90;;
17193;SDS011;8713;48.388;10.928;2024-01-16T01:15:11;1.90;;;0.90;;
17193;SDS011;8713;48.388;10.928;2024-01-16T01:16:41;1.77;;;0.88;;
17193;SDS011;8713;48.388;10.928;2024-01-16T01:18:11;2.28;;;1.10;;
17193;SDS011;8713;48.388;10.928;2024-01-16T01:19:40;1.55;;;1.10;;
17193;SDS011;8713;48.388;10.928;2024-01-16T01:21:09;2.97;;;1.10;;
17193;SDS011;8713;48.388;10.928;2024-01-16T01:22:39;3.28;;;1.30;;
17193;SDS011;8713;48.388;10.928;2024-01-16T01:24:09;2.67;;;0.95;;
17193;SDS011;8713;48.388;10.928;2024-01-16T01:25:38;1.30;;;0.88;;
17193;SDS011;8713;48.388;10.928;2024-01-16T01:27:08;1.63;;;0.77;;
17193;SDS011;8713;48.388;10.928;2024-01-16T01:28:38;2.80;;;0.82;;
17193;SDS011;8713;48.388;10.928;2024-01-16T01:30:09;1.30;;;0.90;;
17193;SDS011;8713;48.388;10.928;2024-01-16T01:31:44;4.00;;;1.00;;
17193;SDS011;8713;48.388;10.928;2024-01-16T01:33:16;1.23;;;0.73;;
17193;SDS011;8713;48.388;10.928;2024-01-16T01:34:46;2.70;;;0.98;;
17193;SDS011;8713;48.388;10.928;2024-01-16T01:36:15;1.67;;;1.00;;
17193;SDS011;8713;48.388;10.928;2024-01-16T01:37:45;1.90;;;1.10;;
17193;SDS011;8713;48.388;10.928;2024-01-16T01:39:15;2.55;;;1.25;;
17193;SDS011;8713;48.388;10.928;2024-01-16T01:40:44;3.30;;;1.30;;
17193;SDS011;8713;48.388;10.928;2024-01-16T01:42:15;3.00;;;1.17;;
17193;SDS011;8713;48.388;10.928;2024-01-16T01:43:45;3.42;;;1.45;;
17193;SDS011;8713;48.388;10.928;2024-01-16T01:45:14;2.50;;;1.30;;
17193;SDS011;8713;48.388;10.928;2024-01-16T01:46:44;1.83;;;0.95;;
17193;SDS011;8713;48.388;10.928;2024-01-16T01:48:15;2.28;;;1.15;;
17193;SDS011;8713;48.388;10.928;2024-01-16T01:49:44;2.30;;;1.15;;
17193;SDS011;8713;48.388;10.928;2024-01-16T01:51:14;2.30;;;1.10;;
17193;SDS011;8713;48.388;10.928;2024-01-16T01:52:47;2.97;;;1.15;;
17193;SDS011;8713;48.388;10.928;2024-01-16T01:54:16;1.98;;;0.88;;
17193;SDS011;8713;48.388;10.928;2024-01-16T01:55:48;1.98;;;0.90;;
17193;SDS011;8713;48.388;10.928;2024-01-16T01:57:18;2.03;;;0.90;;
17193;SDS011;8713;48.388;10.928;2024-01-16T01:58:48;1.38;;;0.93;;
17193;SDS011;8713;48.388;10.928;2024-01-16T02:00:20;1.25;;;0.80;;
17193;SDS011;8713;48.388;10.928;2024-01-16T02:01:51;1.15;;;0.73;;
17193;SDS011;8713;48.388;10.928;2024-01-16T02:03:24;2.17;;;1.05;;
17193;SDS011;8713;48.388;10.928;2024-01-16T02:04:56;1.63;;;0.98;;
17193;SDS011;8713;48.388;10.928;2024-01-16T02:06:26;2.13;;;1.10;;
17193;SDS011;8713;48.388;10.928;2024-01-16T02:07:55;1.60;;;1.00;;
17193;SDS011;8713;48.388;10.928;2024-01-16T02:09:25;3.03;;;1.13;;
17193;SDS011;8713;48.388;10.928;2024-01-16T02:10:55;2.13;;;1.33;;
17193;SDS011;8713;48.388;10.928;2024-01-16T02:12:25;3.13;;;1.20;;
17193;SDS011;8713;48.388;10.928;2024-01-16T02:13:54;1.30;;;0.90;;
17193;SDS011;8713;48.388;10.928;2024-01-16T02:15:24;2.08;;;1.00;;
17193;SDS011;8713;48.388;10.928;2024-01-16T02:16:53;1.73;;;1.10;;
17193;SDS011;8713;48.388;10.928;2024-01-16T02:18:23;2.28;;;1.13;;
17193;SDS011;8713;48.388;10.928;2024-01-16T02:19:53;2.22;;;1.20;;
17193;SDS011;8713;48.388;10.928;2024-01-16T02:21:24;2.10;;;1.20;;
17193;SDS011;8713;48.388;10.928;2024-01-16T02:22:54;2.13;;;1.02;;
17193;SDS011;8713;48.388;10.928;2024-01-16T02:24:25;3.90;;;1.30;;
17193;SDS011;8713;48.388;10.928;2024-01-16T02:25:55;2.90;;;1.20;;
17193;SDS011;8713;48.388;10.928;2024-01-16T02:27:24;4.13;;;1.48;;
17193;SDS011;8713;48.388;10.928;2024-01-16T02:28:54;2.35;;;1.25;;
17193;SDS011;8713;48.388;10.928;2024-01-16T02:30:23;2.03;;;1.17;;
17193;SDS011;8713;48.388;10.928;2024-01-16T02:31:53;1.50;;;0.90;;
17193;SDS011;8713;48.388;10.928;2024-01-16T02:33:22;1.55;;;1.15;;
17193;SDS011;8713;48.388;10.928;2024-01-16T02:34:52;2.60;;;1.45;;
17193;SDS011;8713;48.388;10.928;2024-01-16T02:36:22;2.28;;;1.35;;
17193;SDS011;8713;48.388;10.928;2024-01-16T02:37:51;3.35;;;1.52;;
17193;SDS011;8713;48.388;10.928;2024-01-16T02:39:20;2.15;;;1.23;;
17193;SDS011;8713;48.388;10.928;2024-01-16T02:40:50;2.78;;;1.80;;
17193;SDS011;8713;48.388;10.928;2024-01-16T02:42:20;2.58;;;1.38;;
17193;SDS011;8713;48.388;10.928;2024-01-16T02:43:50;3.80;;;1.70;;
17193;SDS011;8713;48.388;10.928;2024-01-16T02:45:20;4.45;;;1.63;;
17193;SDS011;8713;48.388;10.928;2024-01-16T02:46:50;3.33;;;1.80;;
17193;SDS011;8713;48.388;10.928;2024-01-16T02:48:19;5.28;;;1.80;;
17193;SDS011;8713;48.388;10.928;2024-01-16T02:49:49;3.28;;;1.55;;
17193;SDS011;8713;48.388;10.928;2024-01-16T02:51:19;3.87;;;1.80;;
17193;SDS011;8713;48.388;10.928;2024-01-16T02:52:48;4.20;;;1.70;;
17193;SDS011;8713;48.388;10.928;2024-01-16T02:54:19;5.95;;;1.58;;
17193;SDS011;8713;48.388;10.928;2024-01-16T02:55:49;3.53;;;1.58;;
17193;SDS011;8713;48.388;10.928;2024-01-16T02:57:18;6.20;;;1.92;;
17193;SDS011;8713;48.388;10.928;2024-01-16T02:58:48;2.47;;;1.50;;
17193;SDS011;8713;48.388;10.928;2024-01-16T03:00:18;3.75;;;1.77;;
17193;SDS011;8713;48.388;10.928;2024-01-16T03:01:47;3.08;;;1.50;;
17193;SDS011;8713;48.388;10.928;2024-01-16T03:03:17;2.97;;;1.40;;
17193;SDS011;8713;48.388;10.928;2024-01-16T03:04:46;3.70;;;1.40;;
17193;SDS011;8713;48.388;10.928;2024-01-16T03:06:25;4.95;;;1.60;;
17193;SDS011;8713;48.388;10.928;2024-01-16T03:07:55;3.30;;;1.50;;
17193;SDS011;8713;48.388;10.928;2024-01-16T03:09:24;2.17;;;1.42;;
17193;SDS011;8713;48.388;10.928;2024-01-16T03:10:53;2.40;;;1.38;;
17193;SDS011;8713;48.388;10.928;2024-01-16T03:12:23;3.08;;;1.58;;
17193;SDS011;8713;48.388;10.928;2024-01-16T03:13:52;2.53;;;1.48;;
17193;SDS011;8713;48.388;10.928;2024-01-16T03:15:22;2.33;;;1.30;;
17193;SDS011;8713;48.388;10.928;2024-01-16T03:16:52;4.15;;;1.48;;
17193;SDS011;8713;48.388;10.928;2024-01-16T03:18:21;5.05;;;1.70;;
17193;SDS011;8713;48.388;10.928;2024-01-16T03:19:51;3.58;;;1.70;;
17193;SDS011;8713;48.388;10.928;2024-01-16T03:21:21;3.80;;;1.38;;
17193;SDS011;8713;48.388;10.928;2024-01-16T03:22:50;2.17;;;1.20;;
17193;SDS011;8713;48.388;10.928;2024-01-16T03:24:20;2.30;;;1.38;;
17193;SDS011;8713;48.388;10.928;2024-01-16T03:25:49;2.13;;;1.17;;
17193;SDS011;8713;48.388;10.928;2024-01-16T03:27:19;3.80;;;1.45;;
17193;SDS011;8713;48.388;10.928;2024-01-16T03:28:49;2.45;;;1.30;;
17193;SDS011;8713;48.388;10.928;2024-01-16T03:30:18;3.30;;;1.55;;
17193;SDS011;8713;48.388;10.928;2024-01-16T03:31:48;2.83;;;1.52;;
17193;SDS011;8713;48.388;10.928;2024-01-16T03:33:18;2.30;;;1.17;;
17193;SDS011;8713;48.388;10.928;2024-01-16T03:34:48;3.08;;;1.52;;
17193;SDS011;8713;48.388;10.928;2024-01-16T03:36:17;4.03;;;1.83;;
17193;SDS011;8713;48.388;10.928;2024-01-16T03:37:47;2.95;;;1.40;;
17193;SDS011;8713;48.388;10.928;2024-01-16T03:39:17;2.78;;;1.63;;
17193;SDS011;8713;48.388;10.928;2024-01-16T03:40:47;3.88;;;1.60;;
17193;SDS011;8713;48.388;10.928;2024-01-16T03:42:16;2.28;;;1.40;;
17193;SDS011;8713;48.388;10.928;2024-01-16T03:43:46;3.05;;;1.63;;
17193;SDS011;8713;48.388;10.928;2024-01-16T03:45:16;3.72;;;1.95;;
17193;SDS011;8713;48.388;10.928;2024-01-16T03:46:46;2.95;;;1.27;;
17193;SDS011;8713;48.388;10.928;2024-01-16T03:48:15;4.13;;;1.48;;
17193;SDS011;8713;48.388;10.928;2024-01-16T03:49:45;3.22;;;1.30;;
17193;SDS011;8713;48.388;10.928;2024-01-16T03:51:14;2.13;;;1.33;;
17193;SDS011;8713;48.388;10.928;2024-01-16T03:52:47;4.47;;;2.10;;
17193;SDS011;8713;48.388;10.928;2024-01-16T03:54:16;5.88;;;1.80;;
17193;SDS011;8713;48.388;10.928;2024-01-16T03:55:46;8.57;;;2.60;;
17193;SDS011;8713;48.388;10.928;2024-01-16T03:57:17;3.53;;;1.30;;
17193;SDS011;8713;48.388;10.928;2024-01-16T03:58:47;2.33;;;1.33;;
17193;SDS011;8713;48.388;10.928;2024-01-16T04:00:16;2.42;;;1.27;;
17193;SDS011;8713;48.388;10.928;2024-01-16T04:01:46;3.00;;;1.27;;
17193;SDS011;8713;48.388;10.928;2024-01-16T04:03:17;2.25;;;1.35;;
17193;SDS011;8713;48.388;10.928;2024-01-16T04:04:46;3.10;;;1.45;;
17193;SDS011;8713;48.388;10.928;2024-01-16T04:06:19;2.83;;;1.20;;
17193;SDS011;8713;48.388;10.928;2024-01-16T04:07:48;2.42;;;1.40;;
17193;SDS011;8713;48.388;10.928;2024-01-16T04:09:18;2.45;;;1.30;;
17193;SDS011;8713;48.388;10.928;2024-01-16T04:10:47;1.40;;;0.98;;
17193;SDS011;8713;48.388;10.928;2024-01-16T04:12:17;2.55;;;1.42;;
17193;SDS011;8713;48.388;10.928;2024-01-16T04:13:46;1.70;;;1.13;;
17193;SDS011;8713;48.388;10.928;2024-01-16T04:15:16;5.13;;;1.45;;
17193;SDS011;8713;48.388;10.928;2024-01-16T04:16:46;2.08;;;1.27;;
17193;SDS011;8713;48.388;10.928;2024-01-16T04:18:16;2.80;;;1.45;;
17193;SDS011;8713;48.388;10.928;2024-01-16T04:19:46;3.30;;;1.20;;
17193;SDS011;8713;48.388;10.928;2024-01-16T04:21:16;2.20;;;1.33;;
17193;SDS011;8713;48.388;10.928;2024-01-16T04:22:46;2.33;;;1.20;;
17193;SDS011;8713;48.388;10.928;2024-01-16T04:24:15;2.10;;;1.50;;
17193;SDS011;8713;48.388;10.928;2024-01-16T04:25:45;2.95;;;1.42;;
17193;SDS011;8713;48.388;10.928;2024-01-16T04:27:15;2.40;;;1.30;;
17193;SDS011;8713;48.388;10.928;2024-01-16T04:28:44;2.13;;;1.23;;
17193;SDS011;8713;48.388;10.928;2024-01-16T04:30:14;3.40;;;1.15;;
17193;SDS011;8713;48.388;10.928;2024-01-16T04:31:44;1.65;;;1.05;;
17193;SDS011;8713;48.388;10.928;2024-01-16T04:33:13;3.63;;;1.70;;
17193;SDS011;8713;48.388;10.928;2024-01-16T04:34:43;3.97;;;1.58;;
17193;SDS011;8713;48.388;10.928;2024-01-16T04:36:12;3.80;;;1.70;;
17193;SDS011;8713;48.388;10.928;2024-01-16T04:37:42;2.15;;;1.42;;
17193;SDS011;8713;48.388;10.928;2024-01-16T04:39:11;2.78;;;1.38;;
17193;SDS011;8713;48.388;10.928;2024-01-16T04:40:41;2.58;;;1.35;;
17193;SDS011;8713;48.388;10.928;2024-01-16T04:42:10;2.97;;;1.67;;
17193;SDS011;8713;48.388;10.928;2024-01-16T04:43:40;2.28;;;1.40;;
17193;SDS011;8713;48.388;10.928;2024-01-16T04:45:10;2.28;;;1.42;;
17193;SDS011;8713;48.388;10.928;2024-01-16T04:46:39;2.38;;;1.58;;
17193;SDS011;8713;48.388;10.928;2024-01-16T04:48:09;2.80;;;1.27;;
17193;SDS011;8713;48.388;10.928;2024-01-16T04:49:39;3.75;;;1.20;;
17193;SDS011;8713;48.388;10.928;2024-01-16T04:51:11;2.03;;;1.30;;
17193;SDS011;8713;48.388;10.928;2024-01-16T04:52:40;4.40;;;1.40;;
17193;SDS011;8713;48.388;10.928;2024-01-16T04:54:11;2.10;;;1.13;;
17193;SDS011;8713;48.388;10.928;2024-01-16T04:55:41;3.40;;;1.77;;
17193;SDS011;8713;48.388;10.928;2024-01-16T04:57:10;1.92;;;1.30;;
17193;SDS011;8713;48.388;10.928;2024-01-16T04:58:40;3.65;;;1.40;;
17193;SDS011;8713;48.388;10.928;2024-01-16T05:00:10;2.35;;;1.23;;
17193;SDS011;8713;48.388;10.928;2024-01-16T05:01:41;2.17;;;1.35;;
17193;SDS011;8713;48.388;10.928;2024-01-16T05:03:10;1.83;;;1.15;;
17193;SDS011;8713;48.388;10.928;2024-01-16T05:04:39;2.58;;;1.40;;
17193;SDS011;8713;48.388;10.928;2024-01-16T05:06:15;2.35;;;1.23;;
17193;SDS011;8713;48.388;10.928;2024-01-16T05:07:45;1.55;;;1.10;;
17193;SDS011;8713;48.388;10.928;2024-01-16T05:09:15;4.03;;;1.65;;
17193;SDS011;8713;48.388;10.928;2024-01-16T05:10:45;2.38;;;1.10;;
17193;SDS011;8713;48.388;10.928;2024-01-16T05:12:15;1.40;;;0.95;;
17193;SDS011;8713;48.388;10.928;2024-01-16T05:13:44;1.38;;;1.10;;
17193;SDS011;8713;48.388;10.928;2024-01-16T05:15:14;3.92;;;1.42;;
17193;SDS011;8713;48.388;10.928;2024-01-16T05:16:44;2.42;;;1.23;;
17193;SDS011;8713;48.388;10.928;2024-01-16T05:18:13;1.80;;;0.98;;
17193;SDS011;8713;48.388;10.928;2024-01-16T05:19:43;1.88;;;0.90;;
17193;SDS011;8713;48.388;10.928;2024-01-16T05:21:12;1.80;;;0.95;;
17193;SDS011;8713;48.388;10.928;2024-01-16T05:22:42;2.05;;;1.10;;
17193;SDS011;8713;48.388;10.928;2024-01-16T05:24:13;2.20;;;1.25;;
17193;SDS011;8713;48.388;10.928;2024-01-16T05:25:43;1.63;;;1.00;;
17193;SDS011;8713;48.388;10.928;2024-01-16T05:27:13;1.50;;;0.90;;
17193;SDS011;8713;48.388;10.928;2024-01-16T05:28:43;3.53;;;1.40;;
17193;SDS011;8713;48.388;10.928;2024-01-16T05:30:13;2.78;;;1.15;;
17193;SDS011;8713;48.388;10.928;2024-01-16T05:31:42;1.80;;;1.17;;
17193;SDS011;8713;48.388;10.928;2024-01-16T05:33:12;2.65;;;1.15;;
17193;SDS011;8713;48.388;10.928;2024-01-16T05:34:41;2.35;;;1.13;;
17193;SDS011;8713;48.388;10.928;2024-01-16T05:36:10;2.25;;;1.05;;
17193;SDS011;8713;48.388;10.928;2024-01-16T05:37:40;1.65;;;1.15;;
17193;SDS011;8713;48.388;10.928;2024-01-16T05:39:09;0.95;;;0.82;;
17193;SDS011;8713;48.388;10.928;2024-01-16T05:40:39;1.33;;;0.98;;
17193;SDS011;8713;48.388;10.928;2024-01-16T05:42:09;1.88;;;1.10;;
17193;SDS011;8713;48.388;10.928;2024-01-16T05:43:40;2.55;;;1.23;;
17193;SDS011;8713;48.388;10.928;2024-01-16T05:45:09;2.30;;;0.90;;
17193;SDS011;8713;48.388;10.928;2024-01-16T05:46:39;2.88;;;1.20;;
17193;SDS011;8713;48.388;10.928;2024-01-16T05:48:08;1.70;;;1.10;;
17193;SDS011;8713;48.388;10.928;2024-01-16T05:49:38;1.80;;;1.10;;
17193;SDS011;8713;48.388;10.928;2024-01-16T05:51:08;1.05;;;0.93;;
17193;SDS011;8713;48.388;10.928;2024-01-16T05:52:37;1.40;;;1.00;;
17193;SDS011;8713;48.388;10.928;2024-01-16T05:54:07;1.73;;;0.88;;
17193;SDS011;8713;48.388;10.928;2024-01-16T05:55:36;2.05;;;1.10;;
17193;SDS011;8713;48.388;10.928;2024-01-16T05:57:06;1.83;;;1.10;;
17193;SDS011;8713;48.388;10.928;2024-01-16T05:58:36;1.58;;;1.00;;
17193;SDS011;8713;48.388;10.928;2024-01-16T06:00:08;1.77;;;0.98;;
17193;SDS011;8713;48.388;10.928;2024-01-16T06:01:38;1.75;;;1.02;;
17193;SDS011;8713;48.388;10.928;2024-01-16T06:03:08;1.88;;;1.15;;
17193;SDS011;8713;48.388;10.928;2024-01-16T06:04:37;2.88;;;1.77;;
17193;SDS011;8713;48.388;10.928;2024-01-16T06:06:06;2.25;;;1.27;;
17193;SDS011;8713;48.388;10.928;2024-01-16T06:07:36;3.85;;;1.27;;
17193;SDS011;8713;48.388;10.928;2024-01-16T06:09:05;2.42;;;1.45;;
17193;SDS011;8713;48.388;10.928;2024-01-16T06:10:35;2.50;;;1.23;;
17193;SDS011;8713;48.388;10.928;2024-01-16T06:12:05;1.42;;;1.02;;
17193;SDS011;8713;48.388;10.928;2024-01-16T06:13:36;2.92;;;1.25;;
17193;SDS011;8713;48.388;10.928;2024-01-16T06:15:06;2.65;;;1.45;;
17193;SDS011;8713;48.388;10.928;2024-01-16T06:16:36;4.13;;;2.53;;
17193;SDS011;8713;48.388;10.928;2024-01-16T06:18:06;2.63;;;1.27;;
17193;SDS011;8713;48.388;10.928;2024-01-16T06:19:35;2.88;;;0.93;;
17193;SDS011;8713;48.388;10.928;2024-01-16T06:21:05;1.90;;;1.13;;
17193;SDS011;8713;48.388;10.928;2024-01-16T06:22:34;1.35;;;0.98;;
17193;SDS011;8713;48.388;10.928;2024-01-16T06:24:04;2.15;;;1.40;;
17193;SDS011;8713;48.388;10.928;2024-01-16T06:25:33;3.17;;;1.70;;
17193;SDS011;8713;48.388;10.928;2024-01-16T06:27:04;2.00;;;1.02;;
17193;SDS011;8713;48.388;10.928;2024-01-16T06:28:35;3.33;;;1.45;;
17193;SDS011;8713;48.388;10.928;2024-01-16T06:30:05;8.95;;;4.60;;
17193;SDS011;8713;48.388;10.928;2024-01-16T06:31:37;2.53;;;0.93;;
17193;SDS011;8713;48.388;10.928;2024-01-16T06:33:07;2.35;;;1.08;;
17193;SDS011;8713;48.388;10.928;2024-01-16T06:34:36;2.17;;;1.50;;
17193;SDS011;8713;48.388;10.928;2024-01-16T06:36:06;3.28;;;2.00;;
17193;SDS011;8713;48.388;10.928;2024-01-16T06:37:36;3.22;;;2.17;;
17193;SDS011;8713;48.388;10.928;2024-01-16T06:39:05;6.85;;;5.72;;
17193;SDS011;8713;48.388;10.928;2024-01-16T06:40:36;7.03;;;6.35;;
17193;SDS011;8713;48.388;10.928;2024-01-16T06:42:05;4.18;;;3.50;;
17193;SDS011;8713;48.388;10.928;2024-01-16T06:43:35;2.40;;;1.90;;
17193;SDS011;8713;48.388;10.928;2024-01-16T06:45:05;2.30;;;1.45;;
17193;SDS011;8713;48.388;10.928;2024-01-16T06:46:35;1.92;;;1.27;;
17193;SDS011;8713;48.388;10.928;2024-01-16T06:48:04;3.72;;;1.50;;
17193;SDS011;8713;48.388;10.928;2024-01-16T06:49:33;4.30;;;1.90;;
17193;SDS011;8713;48.388;10.928;2024-01-16T06:51:04;4.10;;;1.90;;
17193;SDS011;8713;48.388;10.928;2024-01-16T06:52:34;2.60;;;1.70;;
17193;SDS011;8713;48.388;10.928;2024-01-16T06:54:03;3.33;;;1.73;;
17193;SDS011;8713;48.388;10.928;2024-01-16T06:55:33;2.95;;;1.75;;
17193;SDS011;8713;48.388;10.928;2024-01-16T06:57:03;4.25;;;1.52;;
17193;SDS011;8713;48.388;10.928;2024-01-16T06:58:34;3.20;;;1.58;;
17193;SDS011;8713;48.388;10.928;2024-01-16T07:00:04;2.45;;;1.85;;
17193;SDS011;8713;48.388;10.928;2024-01-16T07:01:36;3.42;;;1.83;;
17193;SDS011;8713;48.388;10.928;2024-01-16T07:03:06;6.00;;;2.28;;
17193;SDS011;8713;48.388;10.928;2024-01-16T07:04:35;4.25;;;2.03;;
17193;SDS011;8713;48.388;10.928;2024-01-16T07:06:05;9.05;;;2.35;;
17193;SDS011;8713;48.388;10.928;2024-01-16T07:07:34;6.10;;;2.15;;
17193;SDS011;8713;48.388;10.928;2024-01-16T07:09:04;7.75;;;2.10;;
17193;SDS011;8713;48.388;10.928;2024-01-16T07:10:34;5.43;;;1.90;;
17193;SDS011;8713;48.388;10.928;2024-01-16T07:12:04;4.82;;;1.85;;
17193;SDS011;8713;48.388;10.928;2024-01-16T07:13:34;3.17;;;1.80;;
17193;SDS011;8713;48.388;10.928;2024-01-16T07:15:04;4.22;;;1.42;;
17193;SDS011;8713;48.388;10.928;2024-01-16T07:16:34;1.83;;;1.27;;
17193;SDS011;8713;48.388;10.928;2024-01-16T07:18:04;2.75;;;1.45;;
17193;SDS011;8713;48.388;10.928;2024-01-16T07:19:34;4.57;;;1.88;;
17193;SDS011;8713;48.388;10.928;2024-01-16T07:21:03;3.40;;;1.52;;
17193;SDS011;8713;48.388;10.928;2024-01-16T07:22:33;4.13;;;1.60;;
17193;SDS011;8713;48.388;10.928;2024-01-16T07:24:06;5.57;;;1.70;;
17193;SDS011;8713;48.388;10.928;2024-01-16T07:25:36;4.65;;;1.75;;
17193;SDS011;8713;48.388;10.928;2024-01-16T07:27:05;3.53;;;1.48;;
17193;SDS011;8713;48.388;10.928;2024-01-16T07:28:35;4.38;;;1.48;;
17193;SDS011;8713;48.388;10.928;2024-01-16T07:29:44;2.53;;;0.93;;
17193;SDS011;8713;48.388;10.928;2024-01-16T07:30:54;2.38;;;1.02;;
17193;SDS011;8713;48.388;10.928;2024-01-16T07:32:03;3.00;;;1.50;;
17193;SDS011;8713;48.388;10.928;2024-01-16T07:33:13;3.13;;;1.45;;
17193;SDS011;8713;48.388;10.928;2024-01-16T07:34:22;3.22;;;1.50;;
17193;SDS011;8713;48.388;10.928;2024-01-16T07:35:32;2.47;;;1.60;;
17193;SDS011;8713;48.388;10.928;2024-01-16T07:36:41;3.85;;;1.90;;
17193;SDS011;8713;48.388;10.928;2024-01-16T07:37:51;4.25;;;2.05;;
17193;SDS011;8713;48.388;10.928;2024-01-16T07:39:01;3.75;;;1.85;;
17193;SDS011;8713;48.388;10.928;2024-01-16T07:40:10;4.70;;;1.95;;
17193;SDS011;8713;48.388;10.928;2024-01-16T07:41:21;5.03;;;1.95;;
17193;SDS011;8713;48.388;10.928;2024-01-16T07:42:30;3.95;;;2.30;;
17193;SDS011;8713;48.388;10.928;2024-01-16T07:43:43;7.15;;;2.60;;
17193;SDS011;8713;48.388;10.928;2024-01-16T07:44:52;6.07;;;2.28;;
17193;SDS011;8713;48.388;10.928;2024-01-16T07:46:03;2.83;;;1.98;;
17193;SDS011;8713;48.388;10.928;2024-01-16T07:47:12;4.07;;;2.10;;
17193;SDS011;8713;48.388;10.928;2024-01-16T07:48:40;5.28;;;2.40;;
17193;SDS011;8713;48.388;10.928;2024-01-16T07:50:09;3.00;;;2.00;;
17193;SDS011;8713;48.388;10.928;2024-01-16T07:51:19;4.90;;;2.40;;
17193;SDS011;8713;48.388;10.928;2024-01-16T07:52:47;5.00;;;2.00;;
17193;SDS011;8713;48.388;10.928;2024-01-16T07:54:16;4.85;;;2.13;;
17193;SDS011;8713;48.388;10.928;2024-01-16T07:55:44;4.55;;;2.28;;
17193;SDS011;8713;48.388;10.928;2024-01-16T07:57:13;5.07;;;2.10;;
17193;SDS011;8713;48.388;10.928;2024-01-16T07:58:35;4.53;;;2.50;;
17193;SDS011;8713;48.388;10.928;2024-01-16T08:00:03;4.53;;;2.17;;
17193;SDS011;8713;48.388;10.928;2024-01-16T08:01:14;4.93;;;2.38;;
17193;SDS011;8713;48.388;10.928;2024-01-16T08:02:42;6.57;;;2.70;;
17193;SDS011;8713;48.388;10.928;2024-01-16T08:04:11;4.47;;;2.60;;
17193;SDS011;8713;48.388;10.928;2024-01-16T08:05:40;9.52;;;4.82;;
17193;SDS011;8713;48.388;10.928;2024-01-16T08:07:08;6.70;;;2.92;;
17193;SDS011;8713;48.388;10.928;2024-01-16T08:08:37;4.95;;;2.55;;
17193;SDS011;8713;48.388;10.928;2024-01-16T08:09:46;4.60;;;2.70;;
17193;SDS011;8713;48.388;10.928;2024-01-16T08:11:15;5.07;;;2.47;;
17193;SDS011;8713;48.388;10.928;2024-01-16T08:12:44;3.20;;;1.65;;
17193;SDS011;8713;48.388;10.928;2024-01-16T08:14:12;2.22;;;1.40;;
17193;SDS011;8713;48.388;10.928;2024-01-16T08:15:41;3.20;;;1.58;;
17193;SDS011;8713;48.388;10.928;2024-01-16T08:17:09;3.92;;;1.95;;
17193;SDS011;8713;48.388;10.928;2024-01-16T08:18:37;3.42;;;2.15;;
17193;SDS011;8713;48.388;10.928;2024-01-16T08:20:06;3.78;;;1.73;;
17193;SDS011;8713;48.388;10.928;2024-01-16T08:21:37;3.33;;;2.08;;
17193;SDS011;8713;48.388;10.928;2024-01-16T08:22:46;4.40;;;2.08;;
17193;SDS011;8713;48.388;10.928;2024-01-16T08:24:14;2.72;;;1.67;;
17193;SDS011;8713;48.388;10.928;2024-01-16T08:25:42;3.30;;;1.98;;
17193;SDS011;8713;48.388;10.928;2024-01-16T08:26:52;3.85;;;1.85;;
17193;SDS011;8713;48.388;10.928;2024-01-16T08:28:20;6.00;;;2.15;;
17193;SDS011;8713;48.388;10.928;2024-01-16T08:29:53;6.30;;;2.60;;
17193;SDS011;8713;48.388;10.928;2024-01-16T08:31:21;10.18;;;3.58;;
17193;SDS011;8713;48.388;10.928;2024-01-16T08:32:49;6.07;;;3.47;;
17193;SDS011;8713;48.388;10.928;2024-01-16T08:34:17;7.22;;;3.47;;
17193;SDS011;8713;48.388;10.928;2024-01-16T08:35:46;7.97;;;3.63;;
17193;SDS011;8713;48.388;10.928;2024-01-16T08:36:56;7.72;;;4.05;;
17193;SDS011;8713;48.388;10.928;2024-01-16T08:38:24;6.30;;;3.67;;
17193;SDS011;8713;48.388;10.928;2024-01-16T08:39:53;5.57;;;3.22;;
17193;SDS011;8713;48.388;10.928;2024-01-16T08:41:21;6.05;;;2.95;;
17193;SDS011;8713;48.388;10.928;2024-01-16T08:42:49;8.10;;;3.53;;
17193;SDS011;8713;48.388;10.928;2024-01-16T08:44:22;5.32;;;3.03;;
17193;SDS011;8713;48.388;10.928;2024-01-16T08:45:50;5.00;;;2.97;;
17193;SDS011;8713;48.388;10.928;2024-01-16T08:47:00;7.25;;;3.42;;
17193;SDS011;8713;48.388;10.928;2024-01-16T08:48:30;6.43;;;3.55;;
17193;SDS011;8713;48.388;10.928;2024-01-16T08:49:59;6.28;;;3.47;;
17193;SDS011;8713;48.388;10.928;2024-01-16T08:51:27;8.02;;;3.85;;
17193;SDS011;8713;48.388;10.928;2024-01-16T08:52:37;7.68;;;4.25;;